Time;durP1;ratioP1;P1;durP2;ratioP2;P2;SDS_P1;SDS_P2;PMS_P1;PMS_P2;Temp;Humidity;BMP_temperature;BMP_pressure;BME280_temperature;BME280_humidity;BME280_pressure;Samples;Min_cycle;Max_cycle;Signal;HPM_P1;HPM_P2
2022/02/22 00:00:53;;;;;;;32.70;4.43;;;6.80;83.00;;;;;;9182566;19;20022;-62
2022/02/22 00:03:58;;;;;;;29.80;5.25;;;6.70;82.90;;;;;;9179007;19;20021;-64
2022/02/22 00:07:03;;;;;;;34.92;6.15;;;6.80;83.00;;;;;;9178966;19;20021;-62
2022/02/22 00:10:14;;;;;;;31.38;4.93;;;6.70;82.90;;;;;;9179220;19;20018;-63
2022/02/22 00:13:19;;;;;;;26.70;4.80;;;6.70;82.90;;;;;;9179438;19;20018;-64
2022/02/22 00:16:27;;;;;;;45.03;4.43;;;6.70;82.90;;;;;;9182583;19;20015;-64
2022/02/22 00:19:32;;;;;;;36.45;5.85;;;6.70;83.00;;;;;;9182186;19;20022;-62
2022/02/22 00:22:37;;;;;;;31.00;4.47;;;6.70;82.90;;;;;;9178060;19;20022;-62
2022/02/22 00:25:42;;;;;;;37.95;6.28;;;6.70;83.00;;;;;;9178502;19;20026;-63
2022/02/22 00:28:47;;;;;;;39.10;7.20;;;6.70;83.00;;;;;;9179891;19;20341;-63
2022/02/22 00:31:54;;;;;;;34.33;5.85;;;6.70;83.00;;;;;;9179535;19;20013;-63
2022/02/22 00:34:59;;;;;;;32.50;4.30;;;6.70;83.00;;;;;;9178917;19;20015;-64
2022/02/22 00:38:04;;;;;;;36.58;5.03;;;6.60;83.00;;;;;;9178154;19;20367;-62
2022/02/22 00:41:09;;;;;;;33.60;4.72;;;6.70;83.00;;;;;;9180109;19;20826;-61
2022/02/22 00:44:14;;;;;;;36.35;5.82;;;6.60;83.00;;;;;;9177417;19;20499;-64
2022/02/22 00:47:22;;;;;;;28.60;5.32;;;6.60;83.00;;;;;;9181375;19;20042;-63
2022/02/22 00:50:30;;;;;;;41.22;5.47;;;6.60;83.00;;;;;;9180629;19;20044;-62
2022/02/22 00:53:35;;;;;;;38.03;5.00;;;6.60;83.00;;;;;;9176375;19;20022;-64
2022/02/22 00:56:40;;;;;;;40.13;4.93;;;6.60;83.00;;;;;;9178003;19;20018;-64
2022/02/22 00:59:45;;;;;;;30.73;5.30;;;6.60;83.00;;;;;;9178186;19;20022;-64
2022/02/22 01:02:52;;;;;;;33.15;5.20;;;6.60;83.00;;;;;;9176247;19;20017;-62
2022/02/22 01:05:57;;;;;;;37.47;4.80;;;6.60;83.00;;;;;;9176466;19;20028;-62
2022/02/22 01:09:04;;;;;;;38.83;5.30;;;6.60;83.00;;;;;;9177668;19;20052;-61
2022/02/22 01:12:10;;;;;;;29.42;4.28;;;6.60;83.00;;;;;;9177637;19;20015;-63
2022/02/22 01:15:15;;;;;;;46.75;5.88;;;6.60;83.70;;;;;;9176166;19;20086;-64
2022/02/22 01:18:22;;;;;;;42.22;6.88;;;6.60;83.10;;;;;;9177622;19;20010;-64
2022/02/22 01:21:28;;;;;;;44.00;5.53;;;6.60;83.10;;;;;;9176004;19;20029;-62
2022/02/22 01:24:33;;;;;;;35.60;5.45;;;6.60;83.10;;;;;;9174713;19;20017;-63
2022/02/22 01:27:40;;;;;;;33.03;5.72;;;6.60;83.20;;;;;;9174191;19;20014;-66
2022/02/22 01:30:45;;;;;;;33.55;5.05;;;6.60;83.20;;;;;;9178750;19;20015;-63
2022/02/22 01:33:54;;;;;;;33.70;6.50;;;6.60;83.10;;;;;;9178126;19;20019;-65
2022/02/22 01:36:59;;;;;;;33.50;5.22;;;6.60;83.10;;;;;;9176177;19;20043;-64
2022/02/22 01:40:04;;;;;;;38.05;6.50;;;6.60;83.10;;;;;;9175512;19;20018;-64
2022/02/22 01:43:09;;;;;;;46.13;5.90;;;6.60;83.10;;;;;;9176241;19;20018;-64
2022/02/22 01:46:16;;;;;;;32.08;4.82;;;6.60;83.10;;;;;;9178330;19;20018;-65
2022/02/22 01:49:23;;;;;;;38.63;4.63;;;6.60;83.10;;;;;;9178323;19;20442;-63
2022/02/22 01:52:29;;;;;;;34.70;5.32;;;6.60;83.00;;;;;;9174847;19;20397;-62
2022/02/22 01:55:35;;;;;;;43.05;5.57;;;6.60;83.00;;;;;;9176101;19;20021;-62
2022/02/22 01:58:41;;;;;;;36.70;6.15;;;6.60;83.00;;;;;;9176393;19;20025;-64
2022/02/22 02:01:49;;;;;;;48.00;5.43;;;6.70;83.00;;;;;;9176137;19;20015;-62
2022/02/22 02:04:56;;;;;;;33.13;4.78;;;6.60;83.00;;;;;;9173470;19;20014;-63
2022/02/22 02:08:01;;;;;;;42.05;6.28;;;6.60;83.00;;;;;;9175432;19;20516;-63
2022/02/22 02:11:11;;;;;;;31.73;5.47;;;6.70;83.10;;;;;;9175915;19;20018;-63
2022/02/22 02:14:17;;;;;;;40.88;7.18;;;6.70;83.10;;;;;;9176459;19;20497;-63
2022/02/22 02:17:22;;;;;;;32.38;7.38;;;6.60;83.00;;;;;;9175103;19;20022;-63
2022/02/22 02:20:29;;;;;;;35.00;4.68;;;6.70;83.10;;;;;;9175690;19;20034;-64
2022/02/22 02:23:37;;;;;;;49.35;5.75;;;6.70;83.10;;;;;;9175042;19;20026;-63
2022/02/22 02:26:43;;;;;;;32.40;5.03;;;6.60;83.10;;;;;;9169924;19;20018;-62
2022/02/22 02:29:48;;;;;;;44.83;6.15;;;6.60;83.10;;;;;;9175332;19;20094;-64
2022/02/22 02:32:53;;;;;;;37.92;5.75;;;6.60;83.70;;;;;;9175279;19;20029;-62
2022/02/22 02:35:58;;;;;;;55.65;5.40;;;6.60;83.10;;;;;;9174103;19;20508;-62
2022/02/22 02:39:06;;;;;;;34.72;5.88;;;6.60;83.10;;;;;;9172703;19;20014;-64
2022/02/22 02:42:12;;;;;;;46.65;6.15;;;6.60;83.10;;;;;;9177687;19;20110;-63
2022/02/22 02:45:17;;;;;;;35.83;4.60;;;6.60;83.20;;;;;;9174706;19;20022;-63
2022/02/22 02:48:22;;;;;;;47.38;6.05;;;6.50;83.10;;;;;;9182463;19;20038;-62
2022/02/22 02:51:33;;;;;;;35.80;5.68;;;6.50;83.20;;;;;;9182401;19;20015;-62
2022/02/22 02:54:41;;;;;;;40.33;5.90;;;6.50;83.20;;;;;;9184726;19;20430;-63
2022/02/22 02:57:46;;;;;;;44.13;5.60;;;6.50;83.20;;;;;;9183682;19;20022;-65
2022/02/22 03:00:51;;;;;;;34.88;5.13;;;6.50;83.20;;;;;;9183576;19;20022;-65
2022/02/22 03:03:57;;;;;;;33.33;4.90;;;6.50;83.30;;;;;;9181969;19;20134;-61
2022/02/22 03:07:02;;;;;;;39.78;6.45;;;6.50;83.30;;;;;;9180418;19;20015;-65
2022/02/22 03:10:11;;;;;;;33.95;4.47;;;6.50;83.30;;;;;;9182492;19;20023;-63
2022/02/22 03:13:15;;;;;;;38.47;4.20;;;6.50;83.40;;;;;;9185277;19;20022;-62
2022/02/22 03:16:20;;;;;;;35.60;4.50;;;6.50;83.40;;;;;;9181232;19;20359;-63
2022/02/22 03:19:25;;;;;;;36.20;5.05;;;6.50;83.40;;;;;;9182093;19;20371;-63
2022/02/22 03:22:30;;;;;;;39.63;5.22;;;6.50;83.40;;;;;;9183103;19;20038;-64
2022/02/22 03:25:38;;;;;;;26.90;4.63;;;6.50;83.40;;;;;;9179361;19;20011;-61
2022/02/22 03:28:43;;;;;;;26.90;4.10;;;6.50;83.40;;;;;;9179823;19;20017;-67
2022/02/22 03:31:48;;;;;;;35.67;5.03;;;6.40;83.30;;;;;;9180050;19;20116;-63
2022/02/22 03:34:53;;;;;;;29.25;3.88;;;6.40;83.30;;;;;;9181310;19;20762;-62
2022/02/22 03:37:58;;;;;;;30.50;5.32;;;6.40;83.30;;;;;;9182631;19;20021;-64
2022/02/22 03:41:06;;;;;;;25.40;4.90;;;6.40;83.30;;;;;;9183988;19;20011;-64
2022/02/22 03:44:11;;;;;;;31.30;5.53;;;6.40;83.30;;;;;;9181708;19;20383;-63
2022/02/22 03:47:17;;;;;;;36.35;3.97;;;6.40;83.30;;;;;;9181091;19;20018;-65
2022/02/22 03:50:22;;;;;;;20.48;3.00;;;6.30;83.30;;;;;;9181148;19;20019;-62
2022/02/22 03:53:26;;;;;;;35.45;3.75;;;6.30;83.30;;;;;;9182212;19;20504;-65
2022/02/22 03:56:34;;;;;;;46.15;4.95;;;6.30;83.30;;;;;;9179406;19;20091;-65
2022/02/22 03:59:39;;;;;;;26.55;3.38;;;6.30;83.30;;;;;;9181318;19;20380;-62
2022/02/22 04:02:44;;;;;;;22.85;3.90;;;6.30;83.30;;;;;;9179002;19;20014;-63
2022/02/22 04:05:49;;;;;;;23.38;4.20;;;6.20;83.30;;;;;;9177629;19;20026;-63
2022/02/22 04:08:54;;;;;;;34.58;5.18;;;6.20;83.30;;;;;;9181206;19;20010;-62
2022/02/22 04:12:02;;;;;;;24.65;3.72;;;6.20;83.30;;;;;;9182706;19;20014;-63
2022/02/22 04:15:08;;;;;;;21.05;3.30;;;6.20;83.30;;;;;;9181641;19;20033;-62
2022/02/22 04:18:13;;;;;;;22.23;4.00;;;6.10;83.30;;;;;;9177595;19;20018;-63
2022/02/22 04:21:18;;;;;;;28.58;4.00;;;6.10;83.30;;;;;;9178561;19;20038;-62
2022/02/22 04:24:26;;;;;;;30.63;3.90;;;6.10;83.30;;;;;;9182164;19;20026;-64
2022/02/22 04:27:33;;;;;;;20.02;3.35;;;6.10;83.30;;;;;;9177104;19;20350;-63
2022/02/22 04:30:38;;;;;;;36.85;5.15;;;6.10;83.30;;;;;;9181650;19;20018;-63
2022/02/22 04:33:43;;;;;;;33.85;4.78;;;6.00;83.30;;;;;;9176660;19;20026;-63
2022/02/22 04:36:48;;;;;;;34.42;5.05;;;6.00;83.30;;;;;;9180374;19;20006;-63
2022/02/22 04:39:54;;;;;;;27.90;4.28;;;6.00;83.30;;;;;;9180709;19;20014;-63
2022/02/22 04:43:02;;;;;;;29.58;4.68;;;6.00;83.30;;;;;;9180260;19;20414;-63
2022/02/22 04:46:07;;;;;;;41.65;4.32;;;5.90;83.30;;;;;;9178476;19;20026;-64
2022/02/22 04:49:12;;;;;;;32.83;4.47;;;5.90;83.40;;;;;;9177373;19;20033;-61
2022/02/22 04:52:17;;;;;;;37.63;5.05;;;5.90;84.10;;;;;;9176624;19;20380;-64
2022/02/22 04:55:22;;;;;;;46.35;6.05;;;5.90;83.40;;;;;;9180345;19;20045;-62
2022/02/22 04:58:30;;;;;;;26.80;3.97;;;5.90;83.50;;;;;;9179365;19;20378;-61
2022/02/22 05:01:36;;;;;;;32.15;5.03;;;5.90;83.50;;;;;;9176071;19;20018;-62
2022/02/22 05:04:41;;;;;;;30.33;4.28;;;5.80;83.50;;;;;;9176900;19;20018;-63
2022/02/22 05:07:46;;;;;;;40.42;5.45;;;5.80;83.50;;;;;;9176803;19;20356;-66
2022/02/22 05:10:51;;;;;;;38.17;5.53;;;5.80;83.50;;;;;;9178333;19;20014;-63
2022/02/22 05:13:58;;;;;;;30.52;3.70;;;5.80;83.50;;;;;;9180783;19;20019;-63
2022/02/22 05:17:03;;;;;;;37.45;5.03;;;5.80;83.50;;;;;;9176740;19;20014;-63
2022/02/22 05:20:10;;;;;;;42.20;4.60;;;5.80;83.50;;;;;;9177588;19;20011;-63
2022/02/22 05:23:15;;;;;;;37.40;3.72;;;5.80;83.60;;;;;;9177659;19;20469;-63
2022/02/22 05:26:20;;;;;;;31.25;4.75;;;5.80;83.50;;;;;;9172765;19;20025;-62
2022/02/22 05:29:28;;;;;;;35.78;4.85;;;5.70;83.60;;;;;;9179149;19;20476;-63
2022/02/22 05:32:33;;;;;;;35.83;4.32;;;5.70;83.50;;;;;;9175172;19;20025;-62
2022/02/22 05:35:38;;;;;;;41.38;5.93;;;5.70;83.60;;;;;;9175742;19;20022;-63
2022/02/22 05:38:45;;;;;;;32.60;4.75;;;5.70;83.60;;;;;;9177277;19;20364;-65
2022/02/22 05:41:50;;;;;;;39.67;4.43;;;5.70;83.60;;;;;;9177441;19;20082;-64
2022/02/22 05:44:59;;;;;;;38.47;4.97;;;5.60;83.60;;;;;;9176232;19;20014;-64
2022/02/22 05:48:04;;;;;;;28.33;3.90;;;5.60;83.50;;;;;;9174870;19;20011;-63
2022/02/22 05:51:09;;;;;;;28.80;5.47;;;5.60;84.20;;;;;;9177484;19;20457;-63
2022/02/22 05:54:14;;;;;;;38.63;5.50;;;5.60;83.60;;;;;;9176099;19;20022;-62
2022/02/22 05:57:19;;;;;;;47.17;5.60;;;5.60;83.60;;;;;;9175251;19;20014;-65
2022/02/22 06:00:27;;;;;;;35.03;4.70;;;5.60;83.60;;;;;;9177132;19;20018;-61
2022/02/22 06:03:32;;;;;;;34.33;6.00;;;5.50;83.60;;;;;;9174425;19;20360;-63
2022/02/22 06:06:37;;;;;;;29.52;4.88;;;5.50;83.60;;;;;;9174189;19;20014;-62
2022/02/22 06:09:42;;;;;;;41.20;4.15;;;5.50;83.60;;;;;;9177557;19;20051;-63
2022/02/22 06:12:48;;;;;;;24.90;4.22;;;5.50;83.60;;;;;;9177557;19;20011;-68
2022/02/22 06:15:58;;;;;;;28.20;4.45;;;5.50;83.60;;;;;;9178499;19;20338;-63
2022/02/22 06:19:03;;;;;;;22.45;3.85;;;5.50;83.60;;;;;;9175996;19;20018;-63
2022/02/22 06:22:08;;;;;;;30.55;4.55;;;5.50;83.70;;;;;;9182973;19;20109;-65
2022/02/22 06:25:14;;;;;;;38.72;5.03;;;5.50;83.70;;;;;;9184101;19;20380;-62
2022/02/22 06:28:19;;;;;;;40.45;5.78;;;5.40;83.60;;;;;;9180726;19;20018;-63
2022/02/22 06:31:26;;;;;;;41.22;5.57;;;5.40;83.70;;;;;;9185951;19;20022;-64
2022/02/22 06:34:33;;;;;;;29.25;5.05;;;5.40;83.70;;;;;;9178575;19;20010;-63
2022/02/22 06:37:38;;;;;;;40.50;4.68;;;5.40;83.70;;;;;;9181835;19;20011;-65
2022/02/22 06:40:43;;;;;;;27.33;4.05;;;5.40;83.70;;;;;;9185340;19;20114;-64
2022/02/22 06:43:48;;;;;;;40.70;4.40;;;5.40;83.70;;;;;;9185676;19;20358;-64
2022/02/22 06:46:56;;;;;;;31.35;4.57;;;5.40;83.70;;;;;;9182136;19;20581;-64
2022/02/22 06:50:01;;;;;;;34.58;4.85;;;5.30;83.80;;;;;;9182671;19;20725;-63
2022/02/22 06:53:11;;;;;;;38.22;4.50;;;5.40;83.70;;;;;;9181513;19;20018;-63
2022/02/22 06:56:17;;;;;;;24.83;4.10;;;5.30;83.70;;;;;;9182743;19;20027;-64
2022/02/22 06:59:24;;;;;;;34.90;4.35;;;5.30;83.80;;;;;;9185041;19;20027;-62
2022/02/22 07:02:29;;;;;;;20.13;3.92;;;5.30;83.80;;;;;;9182983;19;20033;-63
2022/02/22 07:05:35;;;;;;;37.72;4.68;;;5.30;83.80;;;;;;9182736;19;20019;-63
2022/02/22 07:08:40;;;;;;;31.23;4.28;;;5.30;83.80;;;;;;9181220;19;20022;-63
2022/02/22 07:11:45;;;;;;;24.35;4.07;;;5.30;83.80;;;;;;9178794;19;20014;-62
2022/02/22 07:14:53;;;;;;;29.80;4.95;;;5.30;83.90;;;;;;9176868;19;20021;-62
2022/02/22 07:18:01;;;;;;;34.22;4.15;;;5.30;83.90;;;;;;9172705;19;20459;-63
2022/02/22 07:21:06;;;;;;;34.90;4.25;;;5.20;83.90;;;;;;9170712;19;20018;-62
2022/02/22 07:24:11;;;;;;;43.92;5.20;;;5.20;83.90;;;;;;9172777;19;20070;-64
2022/02/22 07:27:16;;;;;;;23.40;4.82;;;5.20;84.00;;;;;;9170731;19;20033;-61
2022/02/22 07:30:24;;;;;;;27.98;4.35;;;5.20;83.90;;;;;;9175124;19;20018;-65
2022/02/22 07:33:29;;;;;;;22.88;3.92;;;5.20;83.90;;;;;;9172655;19;20018;-64
2022/02/22 07:36:34;;;;;;;39.22;4.40;;;5.20;83.90;;;;;;9174291;19;20387;-63
2022/02/22 07:39:39;;;;;;;34.85;4.65;;;5.20;83.90;;;;;;9174943;19;20025;-63
2022/02/22 07:42:45;;;;;;;35.67;4.22;;;5.20;84.00;;;;;;9176999;19;20023;-62
2022/02/22 07:45:52;;;;;;;35.58;4.68;;;5.20;84.00;;;;;;9183644;19;20456;-62
2022/02/22 07:48:58;;;;;;;30.40;5.30;;;5.20;84.20;;;;;;9177373;19;20910;-60
2022/02/22 07:52:03;;;;;;;34.65;5.40;;;5.20;84.20;;;;;;9177795;19;20014;-60
2022/02/22 07:55:09;;;;;;;31.17;3.90;;;5.20;84.30;;;;;;9178995;19;20032;-61
2022/02/22 07:58:34;;;;;;;33.47;4.85;;;5.20;84.40;;;;;;9180479;19;20010;-61
2022/02/22 08:01:42;;;;;;;33.10;4.35;;;5.30;84.50;;;;;;9181200;19;20021;-62
2022/02/22 08:04:47;;;;;;;27.60;4.20;;;5.30;84.50;;;;;;9182185;19;20018;-61
2022/02/22 08:07:52;;;;;;;35.40;5.35;;;5.40;84.60;;;;;;9176472;19;20024;-61
2022/02/22 08:11:01;;;;;;;30.83;4.38;;;5.40;84.60;;;;;;9178350;19;20034;-62
2022/02/22 08:14:06;;;;;;;39.60;4.45;;;5.50;84.70;;;;;;9180853;19;20022;-60
2022/02/22 08:17:14;;;;;;;38.65;4.85;;;5.60;84.90;;;;;;9181490;19;20007;-62
2022/02/22 08:20:19;;;;;;;39.35;5.53;;;5.70;85.00;;;;;;9178692;19;20452;-63
2022/02/22 08:23:25;;;;;;;37.65;5.75;;;5.80;85.00;;;;;;9177589;19;20014;-61
2022/02/22 08:26:31;;;;;;;52.22;5.63;;;5.90;85.10;;;;;;9174432;19;20019;-60
2022/02/22 08:29:36;;;;;;;44.42;5.03;;;6.10;85.10;;;;;;9180005;19;20078;-61
2022/02/22 08:32:43;;;;;;;34.67;4.15;;;6.20;85.10;;;;;;9180916;19;20025;-61
2022/02/22 08:35:48;;;;;;;31.67;4.55;;;6.30;85.20;;;;;;9177179;19;20017;-62
2022/02/22 08:38:54;;;;;;;22.35;3.90;;;6.50;85.20;;;;;;9176791;19;20021;-61
2022/02/22 08:42:00;;;;;;;33.33;4.18;;;6.60;85.10;;;;;;9181190;19;20014;-60
2022/02/22 08:45:06;;;;;;;37.90;5.80;;;6.70;84.80;;;;;;9175261;19;20026;-61
2022/02/22 08:48:14;;;;;;;23.70;3.80;;;6.70;84.80;;;;;;9177926;19;20050;-61
2022/02/22 08:51:20;;;;;;;34.33;4.03;;;6.80;85.00;;;;;;9174150;19;20011;-62
2022/02/22 08:54:25;;;;;;;32.88;5.25;;;6.90;85.80;;;;;;9175540;19;20471;-61
2022/02/22 08:57:30;;;;;;;32.05;5.15;;;7.10;85.30;;;;;;9176481;19;20094;-61
2022/02/22 09:00:36;;;;;;;35.92;7.25;;;7.30;85.30;;;;;;9179886;19;20018;-63
2022/02/22 09:03:43;;;;;;;25.25;4.88;;;7.40;85.30;;;;;;9179849;19;20019;-61
2022/02/22 09:06:49;;;;;;;19.63;3.75;;;7.60;85.30;;;;;;9170668;19;20047;-62
2022/02/22 09:09:53;;;;;;;38.22;6.10;;;7.80;85.30;;;;;;9175866;19;20491;-62
2022/02/22 09:12:59;;;;;;;27.77;4.82;;;8.00;85.30;;;;;;9177063;19;20014;-61
2022/02/22 09:16:04;;;;;;;29.52;4.50;;;8.10;85.20;;;;;;9178933;19;20475;-62
2022/02/22 09:19:11;;;;;;;18.65;3.97;;;8.30;85.00;;;;;;9180072;19;20049;-61
2022/02/22 09:22:16;;;;;;;31.55;4.88;;;8.40;84.70;;;;;;9176683;19;20033;-62
2022/02/22 09:25:22;;;;;;;29.15;4.18;;;8.50;84.60;;;;;;9178217;19;20018;-63
2022/02/22 09:28:28;;;;;;;24.48;3.97;;;8.50;84.40;;;;;;9170162;19;20025;-62
2022/02/22 09:31:33;;;;;;;23.25;4.65;;;8.60;84.30;;;;;;9177305;19;20022;-61
2022/02/22 09:34:41;;;;;;;25.33;4.72;;;8.60;84.80;;;;;;9179057;19;20015;-62
2022/02/22 09:37:47;;;;;;;23.10;4.43;;;8.70;84.20;;;;;;9175083;19;20022;-62
2022/02/22 09:40:53;;;;;;;22.65;3.35;;;8.70;84.10;;;;;;9175638;19;20018;-62
2022/02/22 09:43:58;;;;;;;26.80;3.47;;;8.70;84.00;;;;;;9174464;19;20023;-63
2022/02/22 09:47:03;;;;;;;23.70;3.45;;;8.70;84.00;;;;;;9174907;19;20602;-68
2022/02/22 09:50:14;;;;;;;21.25;3.38;;;8.70;84.00;;;;;;9173205;19;20511;-62
2022/02/22 09:53:19;;;;;;;35.30;6.30;;;8.80;84.00;;;;;;9175074;19;20021;-59
2022/02/22 09:56:25;;;;;;;26.00;3.85;;;8.80;84.00;;;;;;9173210;19;20019;-61
2022/02/22 09:59:31;;;;;;;22.13;3.80;;;8.90;84.10;;;;;;9173140;19;20402;-60
2022/02/22 10:02:39;;;;;;;21.08;4.25;;;8.90;84.00;;;;;;9175401;19;20023;-60
2022/02/22 10:05:54;;;;;;;23.83;4.00;;;9.00;83.90;;;;;;9176672;19;20010;-61
2022/02/22 10:09:00;;;;;;;24.40;4.10;;;9.00;83.80;;;;;;9175972;19;20048;-60
2022/02/22 10:12:06;;;;;;;26.45;4.15;;;9.00;83.70;;;;;;9173945;19;20018;-60
2022/02/22 10:15:12;;;;;;;25.27;4.22;;;9.00;83.60;;;;;;9174553;19;20030;-62
2022/02/22 10:18:18;;;;;;;32.10;4.88;;;9.00;83.50;;;;;;9175169;19;20371;-62
2022/02/22 10:21:26;;;;;;;29.42;4.20;;;9.00;83.50;;;;;;9176449;19;20018;-60
2022/02/22 10:24:33;;;;;;;24.70;4.05;;;9.00;83.40;;;;;;9172471;19;20646;-61
2022/02/22 10:27:46;;;;;;;22.52;4.45;;;9.00;83.40;;;;;;9169621;19;20014;-60
2022/02/22 10:30:53;;;;;;;28.95;4.18;;;9.00;83.40;;;;;;9176575;19;20457;-60
2022/02/22 10:34:04;;;;;;;32.07;5.47;;;9.00;83.40;;;;;;9175536;19;20018;-60
2022/02/22 10:37:33;;;;;;;27.77;4.30;;;9.00;83.40;;;;;;9174196;19;20095;-61
2022/02/22 10:40:40;;;;;;;22.52;4.40;;;9.00;83.40;;;;;;9172300;19;20018;-62
2022/02/22 10:43:54;;;;;;;39.30;5.28;;;9.00;83.50;;;;;;9173509;19;20044;-61
2022/02/22 10:46:59;;;;;;;33.70;4.95;;;9.00;83.40;;;;;;9171243;19;20022;-60
2022/02/22 10:50:09;;;;;;;18.88;3.53;;;9.00;83.40;;;;;;9175103;19;20026;-61
2022/02/22 10:53:17;;;;;;;27.33;5.25;;;9.00;83.50;;;;;;9175271;19;20077;-64
2022/02/22 10:56:22;;;;;;;19.00;4.45;;;9.00;83.40;;;;;;9174947;19;20028;-60
2022/02/22 10:59:30;;;;;;;27.65;4.32;;;9.00;83.50;;;;;;9171670;19;20460;-62
2022/02/22 11:02:35;;;;;;;32.40;5.93;;;9.00;83.40;;;;;;9171856;19;20034;-62
2022/02/22 11:06:00;;;;;;;27.60;5.07;;;9.00;83.40;;;;;;9174398;19;20464;-64
2022/02/22 11:09:09;;;;;;;23.42;5.03;;;9.10;83.40;;;;;;9180192;19;20115;-62
2022/02/22 11:12:26;;;;;;;24.10;4.72;;;9.10;83.30;;;;;;9180535;19;20026;-64
2022/02/22 11:15:37;;;;;;;27.63;5.22;;;9.10;83.30;;;;;;9179109;19;20082;-62
2022/02/22 11:18:51;;;;;;;32.47;5.15;;;9.10;83.30;;;;;;9180480;19;20384;-61
2022/02/22 11:21:59;;;;;;;33.75;6.72;;;9.10;83.30;;;;;;9173640;19;20502;-61
2022/02/22 11:25:10;;;;;;;23.33;4.88;;;9.10;83.30;;;;;;9178301;19;20085;-62
2022/02/22 11:28:15;;;;;;;30.85;5.13;;;9.20;83.30;;;;;;9171990;19;20017;-63
2022/02/22 11:31:23;;;;;;;21.75;4.60;;;9.20;83.20;;;;;;9176970;19;20055;-65
2022/02/22 11:34:34;;;;;;;30.88;5.40;;;9.20;83.20;;;;;;9178324;19;20480;-61
2022/02/22 11:37:39;;;;;;;31.77;4.43;;;9.20;83.30;;;;;;9181577;19;20021;-62
2022/02/22 11:40:52;;;;;;;26.80;5.07;;;9.20;83.20;;;;;;9183374;19;20338;-62
2022/02/22 11:44:02;;;;;;;27.83;5.90;;;9.20;83.20;;;;;;9181312;19;20467;-62
2022/02/22 11:47:17;;;;;;;28.02;5.45;;;9.20;83.30;;;;;;9183173;19;20018;-64
2022/02/22 11:50:22;;;;;;;26.33;4.57;;;9.20;83.20;;;;;;9180332;19;20018;-64
2022/02/22 11:53:30;;;;;;;18.70;4.07;;;9.20;83.20;;;;;;9179696;19;20618;-62
2022/02/22 11:56:39;;;;;;;33.97;5.88;;;9.10;83.20;;;;;;9179946;19;20033;-63
2022/02/22 11:59:50;;;;;;;22.05;5.05;;;9.10;83.20;;;;;;9183031;19;20018;-63
2022/02/22 12:02:55;;;;;;;27.90;4.95;;;9.10;83.20;;;;;;9182483;19;20025;-63
2022/02/22 12:06:02;;;;;;;32.55;4.88;;;9.10;83.20;;;;;;9180710;19;20353;-63
2022/02/22 12:09:09;;;;;;;34.85;6.32;;;9.10;83.30;;;;;;9179130;19;20016;-63
2022/02/22 12:12:23;;;;;;;30.80;6.28;;;9.00;83.30;;;;;;9181509;19;20023;-63
2022/02/22 12:15:33;;;;;;;;;;;9.00;83.20;;;;;;9181745;19;20464;-62
2022/02/22 12:18:39;;;;;;;26.35;5.50;;;9.00;83.30;;;;;;9181025;19;19914;-63
2022/02/22 12:21:48;;;;;;;25.48;4.55;;;9.00;83.20;;;;;;9179849;19;20503;-64
2022/02/22 12:25:01;;;;;;;34.03;6.53;;;9.00;83.30;;;;;;9178636;19;20006;-62
2022/02/22 12:28:08;;;;;;;26.17;5.22;;;9.00;83.30;;;;;;9173622;19;21494;-62
2022/02/22 12:31:13;;;;;;;28.02;4.40;;;9.00;83.30;;;;;;9178209;19;20014;-63
2022/02/22 12:34:20;;;;;;;25.33;5.10;;;9.00;83.30;;;;;;9181487;19;20026;-64
2022/02/22 12:37:29;;;;;;;23.80;4.22;;;8.90;83.30;;;;;;9180189;19;20506;-63
2022/02/22 12:40:34;;;;;;;22.95;4.55;;;8.90;83.40;;;;;;9163443;19;20032;-65
2022/02/22 12:44:03;;;;;;;21.92;4.88;;;8.90;83.50;;;;;;9169933;19;20039;-64
2022/02/22 12:47:08;;;;;;;25.83;4.25;;;8.90;83.60;;;;;;9171789;19;20011;-63
2022/02/22 12:50:13;;;;;;;25.05;4.05;;;8.90;83.70;;;;;;9172502;19;20022;-63
2022/02/22 12:53:26;;;;;;;25.17;4.88;;;8.90;83.70;;;;;;9174968;19;20018;-63
2022/02/22 12:56:33;;;;;;;29.15;4.45;;;8.90;83.80;;;;;;9171056;19;20011;-63
2022/02/22 12:59:41;;;;;;;24.13;4.95;;;8.80;83.80;;;;;;9173451;19;20051;-63
2022/02/22 13:02:46;;;;;;;31.95;4.63;;;8.80;83.80;;;;;;9172253;19;20022;-66
2022/02/22 13:05:52;;;;;;;21.15;4.22;;;8.80;83.80;;;;;;9175307;19;20022;-64
2022/02/22 13:08:58;;;;;;;29.13;5.00;;;8.80;83.90;;;;;;9172788;19;20025;-63
2022/02/22 13:12:04;;;;;;;28.65;4.60;;;8.80;84.00;;;;;;9169492;19;20017;-63
2022/02/22 13:15:15;;;;;;;32.40;5.35;;;8.80;84.00;;;;;;9173496;19;20451;-63
2022/02/22 13:18:26;;;;;;;37.95;5.43;;;8.80;84.00;;;;;;9170951;19;20018;-63
2022/02/22 13:21:39;;;;;;;30.77;6.07;;;8.80;84.10;;;;;;9173919;19;20483;-66
2022/02/22 13:24:44;;;;;;;34.60;6.30;;;8.80;84.20;;;;;;9175676;19;20348;-65
2022/02/22 13:27:54;;;;;;;29.98;5.03;;;8.80;84.20;;;;;;9163989;19;20018;-63
2022/02/22 13:31:18;;;;;;;37.53;6.35;;;8.80;84.20;;;;;;9170378;19;20026;-63
2022/02/22 13:34:31;;;;;;;37.30;7.40;;;8.80;84.30;;;;;;9172686;19;20021;-63
2022/02/22 13:37:42;;;;;;;34.17;5.88;;;8.90;84.40;;;;;;9171786;19;20022;-65
2022/02/22 13:40:47;;;;;;;26.27;5.97;;;8.90;84.50;;;;;;9173444;19;20021;-65
2022/02/22 13:43:52;;;;;;;38.38;7.00;;;8.90;84.50;;;;;;9173638;19;20019;-64
2022/02/22 13:47:00;;;;;;;38.88;6.20;;;8.90;84.50;;;;;;9168522;19;20018;-64
2022/02/22 13:50:19;;;;;;;39.38;7.05;;;8.90;84.60;;;;;;9168608;19;20018;-65
2022/02/22 13:53:24;;;;;;;27.52;5.78;;;9.00;84.70;;;;;;9170166;19;20015;-63
2022/02/22 13:56:30;;;;;;;40.45;6.38;;;9.00;84.60;;;;;;9171663;19;20377;-65
2022/02/22 13:59:36;;;;;;;32.78;5.78;;;9.00;84.60;;;;;;9170863;19;20014;-65
2022/02/22 14:02:44;;;;;;;35.22;7.32;;;9.10;84.70;;;;;;9170651;19;20401;-62
2022/02/22 14:05:49;;;;;;;44.72;8.43;;;9.10;84.80;;;;;;9168532;19;20021;-63
2022/02/22 14:08:54;;;;;;;33.65;6.15;;;9.10;84.70;;;;;;9171898;19;20029;-65
2022/02/22 14:11:59;;;;;;;25.35;6.50;;;9.10;84.70;;;;;;9170677;19;20501;-63
2022/02/22 14:15:04;;;;;;;34.53;6.15;;;9.10;84.70;;;;;;9172063;19;20015;-63
2022/02/22 14:18:12;;;;;;;38.78;6.78;;;9.20;84.80;;;;;;9170260;19;20013;-63
2022/02/22 14:21:19;;;;;;;34.40;6.80;;;9.20;84.90;;;;;;9168578;19;20027;-65
2022/02/22 14:24:25;;;;;;;29.15;6.50;;;9.20;84.90;;;;;;9170577;19;20022;-63
2022/02/22 14:27:30;;;;;;;33.35;7.50;;;9.20;85.00;;;;;;9167512;19;20022;-64
2022/02/22 14:30:34;;;;;;;41.10;8.93;;;9.20;85.00;;;;;;9171970;19;20021;-63
2022/02/22 14:33:42;;;;;;;28.02;7.13;;;9.20;85.10;;;;;;9165982;19;20136;-63
2022/02/22 14:36:47;;;;;;;31.23;6.53;;;9.30;85.10;;;;;;9168274;19;20078;-64
2022/02/22 14:39:52;;;;;;;30.85;7.43;;;9.30;85.20;;;;;;9170717;19;20015;-63
2022/02/22 14:42:57;;;;;;;34.45;7.45;;;9.30;85.20;;;;;;9178630;19;20011;-67
2022/02/22 14:46:03;;;;;;;34.25;7.70;;;9.30;85.20;;;;;;9178770;19;20022;-64
2022/02/22 14:49:10;;;;;;;29.83;7.05;;;9.30;85.20;;;;;;9177130;19;20051;-65
2022/02/22 14:52:15;;;;;;;30.15;6.95;;;9.40;85.30;;;;;;9178304;19;20626;-63
2022/02/22 14:55:40;;;;;;;27.05;6.20;;;9.40;85.30;;;;;;9179001;19;20818;-65
2022/02/22 14:58:46;;;;;;;25.67;6.97;;;9.40;85.30;;;;;;9179676;19;20019;-64
2022/02/22 15:01:51;;;;;;;31.67;7.53;;;9.50;85.40;;;;;;9179743;19;20517;-64
2022/02/22 15:05:00;;;;;;;28.70;6.25;;;9.50;85.40;;;;;;9175918;19;20665;-63
2022/02/22 15:08:10;;;;;;;29.02;7.15;;;9.50;85.50;;;;;;9175174;19;20052;-64
2022/02/22 15:11:16;;;;;;;23.95;7.18;;;9.50;85.50;;;;;;9176020;19;20018;-63
2022/02/22 15:14:21;;;;;;;31.00;7.05;;;9.60;85.60;;;;;;9178574;19;20021;-64
2022/02/22 15:17:26;;;;;;;25.30;6.10;;;9.60;85.60;;;;;;9179513;19;20018;-64
2022/02/22 15:20:34;;;;;;;29.90;7.07;;;9.60;85.60;;;;;;9175879;19;20476;-62
2022/02/22 15:23:40;;;;;;;33.22;8.05;;;9.70;85.70;;;;;;9175829;19;20488;-64
2022/02/22 15:26:45;;;;;;;19.92;6.70;;;9.70;85.70;;;;;;9173104;19;20033;-65
2022/02/22 15:29:50;;;;;;;25.23;7.15;;;9.70;85.70;;;;;;9176456;19;20014;-63
2022/02/22 15:32:56;;;;;;;27.38;7.20;;;9.80;85.70;;;;;;9177371;19;20018;-64
2022/02/22 15:36:04;;;;;;;27.95;5.95;;;9.80;85.70;;;;;;9173319;19;20493;-63
2022/02/22 15:39:09;;;;;;;18.80;6.35;;;9.80;85.80;;;;;;9174001;19;20014;-64
2022/02/22 15:42:15;;;;;;;29.58;7.18;;;9.90;85.90;;;;;;9175845;19;21383;-63
2022/02/22 15:45:20;;;;;;;29.27;7.18;;;9.90;85.90;;;;;;9178572;19;20022;-66
2022/02/22 15:48:25;;;;;;;25.75;6.68;;;9.90;85.90;;;;;;9181411;19;20022;-65
2022/02/22 15:51:33;;;;;;;22.60;6.65;;;9.90;85.90;;;;;;9174138;19;20054;-64
2022/02/22 15:54:38;;;;;;;32.38;6.57;;;9.90;86.00;;;;;;9175140;19;20014;-63
2022/02/22 15:57:43;;;;;;;26.80;6.85;;;10.00;86.00;;;;;;9175113;19;20106;-65
2022/02/22 16:00:49;;;;;;;24.35;6.45;;;10.00;86.00;;;;;;9176236;19;20018;-65
2022/02/22 16:03:54;;;;;;;34.42;7.28;;;10.10;86.10;;;;;;9177407;19;20683;-65
2022/02/22 16:07:01;;;;;;;33.67;7.70;;;10.10;86.10;;;;;;9174363;19;20044;-63
2022/02/22 16:10:08;;;;;;;25.33;6.10;;;10.10;86.10;;;;;;9173659;19;20099;-63
2022/02/22 16:13:14;;;;;;;25.48;6.28;;;10.10;86.20;;;;;;9176704;19;20022;-63